sensor_id;sensor_type;location;lat;lon;timestamp;pressure;altitude;pressure_sealevel;temperature;humidity
79273;BME280;68718;-19.302;146.788;2023-04-24T00:00:39;101950.76;;;34.52;35.54
79273;BME280;68718;-19.302;146.788;2023-04-24T00:03:04;101950.05;;;35.22;33.86
79273;BME280;68718;-19.302;146.788;2023-04-24T00:05:29;101950.09;;;33.96;35.92
79273;BME280;68718;-19.302;146.788;2023-04-24T00:07:55;101951.84;;;34.97;34.98
79273;BME280;68718;-19.302;146.788;2023-04-24T00:10:20;101950.42;;;34.36;35.03
79273;BME280;68718;-19.302;146.788;2023-04-24T00:12:46;101942.26;;;33.52;36.94
79273;BME280;68718;-19.302;146.788;2023-04-24T00:15:11;101933.85;;;34.59;35.24
79273;BME280;68718;-19.302;146.788;2023-04-24T00:17:36;101930.76;;;33.81;35.79
79273;BME280;68718;-19.302;146.788;2023-04-24T00:20:01;101936.20;;;34.54;35.67
79273;BME280;68718;-19.302;146.788;2023-04-24T00:22:27;101941.19;;;34.32;35.32
79273;BME280;68718;-19.302;146.788;2023-04-24T00:24:52;101937.12;;;33.93;35.68
79273;BME280;68718;-19.302;146.788;2023-04-24T00:27:17;101933.71;;;34.54;35.35
79273;BME280;68718;-19.302;146.788;2023-04-24T00:29:43;101931.65;;;34.88;35.11
79273;BME280;68718;-19.302;146.788;2023-04-24T00:32:08;101935.41;;;34.27;35.83
79273;BME280;68718;-19.302;146.788;2023-04-24T00:34:33;101935.24;;;33.74;35.89
79273;BME280;68718;-19.302;146.788;2023-04-24T00:36:59;101927.21;;;32.82;38.34
79273;BME280;68718;-19.302;146.788;2023-04-24T00:39:24;101915.00;;;33.34;37.88
79273;BME280;68718;-19.302;146.788;2023-04-24T00:41:50;101912.91;;;33.05;37.99
79273;BME280;68718;-19.302;146.788;2023-04-24T00:44:15;101902.44;;;33.93;35.96
79273;BME280;68718;-19.302;146.788;2023-04-24T00:46:40;101900.46;;;33.95;36.96
79273;BME280;68718;-19.302;146.788;2023-04-24T00:49:06;101894.45;;;34.27;36.58
79273;BME280;68718;-19.302;146.788;2023-04-24T00:51:30;101887.25;;;34.81;35.39
79273;BME280;68718;-19.302;146.788;2023-04-24T00:53:56;101885.83;;;33.54;36.57
79273;BME280;68718;-19.302;146.788;2023-04-24T00:56:22;101885.70;;;33.44;36.54
79273;BME280;68718;-19.302;146.788;2023-04-24T00:58:48;101884.58;;;33.51;36.03
79273;BME280;68718;-19.302;146.788;2023-04-24T01:01:12;101880.47;;;34.48;35.17
79273;BME280;68718;-19.302;146.788;2023-04-24T01:03:37;101880.86;;;34.14;36.33
79273;BME280;68718;-19.302;146.788;2023-04-24T01:06:04;101880.24;;;33.72;35.76
79273;BME280;68718;-19.302;146.788;2023-04-24T01:08:29;101877.31;;;34.76;34.02
79273;BME280;68718;-19.302;146.788;2023-04-24T01:10:54;101873.06;;;35.60;33.91
79273;BME280;68718;-19.302;146.788;2023-04-24T01:13:19;101865.10;;;34.45;35.24
79273;BME280;68718;-19.302;146.788;2023-04-24T01:15:44;101852.81;;;34.12;36.09
79273;BME280;68718;-19.302;146.788;2023-04-24T01:18:10;101851.51;;;33.78;36.18
79273;BME280;68718;-19.302;146.788;2023-04-24T01:20:36;101849.23;;;34.82;35.08
79273;BME280;68718;-19.302;146.788;2023-04-24T01:23:01;101850.32;;;35.36;34.13
79273;BME280;68718;-19.302;146.788;2023-04-24T01:25:27;101856.05;;;33.92;35.69
79273;BME280;68718;-19.302;146.788;2023-04-24T01:27:52;101852.72;;;35.08;33.97
79273;BME280;68718;-19.302;146.788;2023-04-24T01:30:17;101854.71;;;34.63;34.24
79273;BME280;68718;-19.302;146.788;2023-04-24T01:32:43;101857.00;;;33.92;35.92
79273;BME280;68718;-19.302;146.788;2023-04-24T01:35:09;101845.24;;;34.23;35.49
79273;BME280;68718;-19.302;146.788;2023-04-24T01:37:33;101833.03;;;35.12;34.06
79273;BME280;68718;-19.302;146.788;2023-04-24T01:39:58;101827.99;;;34.94;34.28
79273;BME280;68718;-19.302;146.788;2023-04-24T01:42:24;101820.11;;;35.01;34.46
79273;BME280;68718;-19.302;146.788;2023-04-24T01:44:49;101818.50;;;34.29;35.29
79273;BME280;68718;-19.302;146.788;2023-04-24T01:47:14;101819.19;;;34.62;35.61
79273;BME280;68718;-19.302;146.788;2023-04-24T01:49:39;101804.34;;;34.23;35.08
79273;BME280;68718;-19.302;146.788;2023-04-24T01:52:05;101801.14;;;34.71;34.34
79273;BME280;68718;-19.302;146.788;2023-04-24T01:54:31;101796.04;;;34.66;35.08
79273;BME280;68718;-19.302;146.788;2023-04-24T01:56:55;101793.55;;;35.05;34.61
79273;BME280;68718;-19.302;146.788;2023-04-24T01:59:21;101788.09;;;35.61;32.85
79273;BME280;68718;-19.302;146.788;2023-04-24T02:01:46;101781.95;;;35.61;34.37
79273;BME280;68718;-19.302;146.788;2023-04-24T02:04:11;101775.69;;;35.63;34.28
79273;BME280;68718;-19.302;146.788;2023-04-24T02:06:37;101781.15;;;35.18;33.42
79273;BME280;68718;-19.302;146.788;2023-04-24T02:09:02;101779.21;;;35.48;33.98
79273;BME280;68718;-19.302;146.788;2023-04-24T02:11:27;101771.69;;;36.59;31.42
79273;BME280;68718;-19.302;146.788;2023-04-24T02:13:53;101775.43;;;35.80;32.51
79273;BME280;68718;-19.302;146.788;2023-04-24T02:16:18;101783.07;;;33.41;33.81
79273;BME280;68718;-19.302;146.788;2023-04-24T02:18:44;101778.23;;;35.43;33.28
79273;BME280;68718;-19.302;146.788;2023-04-24T02:21:09;101770.62;;;35.73;32.69
79273;BME280;68718;-19.302;146.788;2023-04-24T02:23:34;101761.60;;;37.24;31.15
79273;BME280;68718;-19.302;146.788;2023-04-24T02:25:59;101758.52;;;36.11;32.91
79273;BME280;68718;-19.302;146.788;2023-04-24T02:28:24;101760.74;;;34.82;33.57
79273;BME280;68718;-19.302;146.788;2023-04-24T02:30:51;101748.52;;;35.68;32.58
79273;BME280;68718;-19.302;146.788;2023-04-24T02:33:15;101745.84;;;35.55;33.31
79273;BME280;68718;-19.302;146.788;2023-04-24T02:35:40;101748.22;;;34.20;35.31
79273;BME280;68718;-19.302;146.788;2023-04-24T02:39:15;101737.07;;;34.37;32.97
79273;BME280;68718;-19.302;146.788;2023-04-24T02:44:44;101738.44;;;35.36;30.62
79273;BME280;68718;-19.302;146.788;2023-04-24T02:47:09;101742.10;;;36.08;31.32
79273;BME280;68718;-19.302;146.788;2023-04-24T02:49:35;101743.17;;;36.41;31.04
79273;BME280;68718;-19.302;146.788;2023-04-24T02:52:00;101748.32;;;36.11;32.43
79273;BME280;68718;-19.302;146.788;2023-04-24T02:54:47;101738.58;;;36.24;29.50
79273;BME280;68718;-19.302;146.788;2023-04-24T02:57:13;101734.24;;;37.09;28.94
79273;BME280;68718;-19.302;146.788;2023-04-24T02:59:38;101734.10;;;36.59;31.47
79273;BME280;68718;-19.302;146.788;2023-04-24T03:02:03;101731.61;;;36.87;31.17
79273;BME280;68718;-19.302;146.788;2023-04-24T03:04:29;101727.11;;;36.76;30.63
79273;BME280;68718;-19.302;146.788;2023-04-24T03:06:55;101727.82;;;38.61;28.40
79273;BME280;68718;-19.302;146.788;2023-04-24T03:09:20;101714.69;;;39.16;28.53
79273;BME280;68718;-19.302;146.788;2023-04-24T03:11:45;101705.68;;;37.67;29.37
79273;BME280;68718;-19.302;146.788;2023-04-24T03:14:10;101708.39;;;36.07;31.37
79273;BME280;68718;-19.302;146.788;2023-04-24T03:16:36;101700.74;;;38.42;29.01
79273;BME280;68718;-19.302;146.788;2023-04-24T03:19:01;101692.65;;;37.92;28.24
79273;BME280;68718;-19.302;146.788;2023-04-24T03:21:26;101696.87;;;37.34;29.05
79273;BME280;68718;-19.302;146.788;2023-04-24T03:23:52;101696.79;;;37.81;29.07
79273;BME280;68718;-19.302;146.788;2023-04-24T03:26:17;101698.96;;;39.04;27.71
79273;BME280;68718;-19.302;146.788;2023-04-24T03:28:43;101695.36;;;36.72;30.29
79273;BME280;68718;-19.302;146.788;2023-04-24T03:31:08;101698.65;;;36.54;29.65
79273;BME280;68718;-19.302;146.788;2023-04-24T03:33:33;101698.15;;;37.68;28.62
79273;BME280;68718;-19.302;146.788;2023-04-24T03:35:59;101691.35;;;37.50;29.33
79273;BME280;68718;-19.302;146.788;2023-04-24T03:38:24;101691.59;;;38.02;28.59
79273;BME280;68718;-19.302;146.788;2023-04-24T03:40:49;101688.33;;;38.89;28.01
79273;BME280;68718;-19.302;146.788;2023-04-24T03:43:15;101684.37;;;39.74;26.45
79273;BME280;68718;-19.302;146.788;2023-04-24T03:45:40;101695.74;;;37.32;29.53
79273;BME280;68718;-19.302;146.788;2023-04-24T03:48:06;101687.81;;;36.72;29.11
79273;BME280;68718;-19.302;146.788;2023-04-24T03:50:31;101691.06;;;35.73;30.68
79273;BME280;68718;-19.302;146.788;2023-04-24T03:52:57;101682.33;;;36.86;30.08
79273;BME280;68718;-19.302;146.788;2023-04-24T03:55:22;101676.32;;;35.13;31.98
79273;BME280;68718;-19.302;146.788;2023-04-24T03:57:47;101677.38;;;35.56;31.46
79273;BME280;68718;-19.302;146.788;2023-04-24T04:00:13;101667.44;;;37.49;28.89
79273;BME280;68718;-19.302;146.788;2023-04-24T04:02:38;101662.06;;;36.68;29.46
79273;BME280;68718;-19.302;146.788;2023-04-24T04:05:03;101665.36;;;35.34;32.38
79273;BME280;68718;-19.302;146.788;2023-04-24T04:07:29;101672.54;;;35.85;31.70
79273;BME280;68718;-19.302;146.788;2023-04-24T04:09:54;101673.93;;;34.41;32.44
79273;BME280;68718;-19.302;146.788;2023-04-24T04:12:20;101667.97;;;34.51;32.62
79273;BME280;68718;-19.302;146.788;2023-04-24T04:14:45;101662.60;;;34.92;33.37
79273;BME280;68718;-19.302;146.788;2023-04-24T04:17:10;101653.96;;;36.15;31.17
79273;BME280;68718;-19.302;146.788;2023-04-24T04:19:36;101646.34;;;36.67;31.11
79273;BME280;68718;-19.302;146.788;2023-04-24T04:22:01;101642.89;;;36.58;30.98
79273;BME280;68718;-19.302;146.788;2023-04-24T04:24:27;101644.37;;;35.40;32.43
79273;BME280;68718;-19.302;146.788;2023-04-24T04:26:52;101652.13;;;35.51;31.51
79273;BME280;68718;-19.302;146.788;2023-04-24T04:29:18;101645.54;;;37.17;30.02
79273;BME280;68718;-19.302;146.788;2023-04-24T04:31:43;101644.26;;;36.58;30.82
79273;BME280;68718;-19.302;146.788;2023-04-24T04:34:08;101641.40;;;37.88;29.27
79273;BME280;68718;-19.302;146.788;2023-04-24T04:36:34;101632.37;;;36.99;30.48
79273;BME280;68718;-19.302;146.788;2023-04-24T04:38:59;101631.28;;;36.76;30.96
79273;BME280;68718;-19.302;146.788;2023-04-24T04:41:24;101633.09;;;36.11;31.62
79273;BME280;68718;-19.302;146.788;2023-04-24T04:43:50;101628.73;;;36.80;31.06
79273;BME280;68718;-19.302;146.788;2023-04-24T04:46:15;101633.11;;;35.64;31.66
79273;BME280;68718;-19.302;146.788;2023-04-24T04:48:41;101636.78;;;36.39;30.88
79273;BME280;68718;-19.302;146.788;2023-04-24T04:51:06;101631.44;;;35.90;31.73
79273;BME280;68718;-19.302;146.788;2023-04-24T04:53:31;101630.23;;;35.74;32.32
79273;BME280;68718;-19.302;146.788;2023-04-24T04:55:57;101633.17;;;36.38;31.26
79273;BME280;68718;-19.302;146.788;2023-04-24T04:58:22;101632.40;;;36.70;30.59
79273;BME280;68718;-19.302;146.788;2023-04-24T05:00:48;101633.30;;;37.55;29.52
79273;BME280;68718;-19.302;146.788;2023-04-24T05:03:12;101636.52;;;36.75;29.80
79273;BME280;68718;-19.302;146.788;2023-04-24T05:05:38;101634.32;;;38.07;29.53
79273;BME280;68718;-19.302;146.788;2023-04-24T05:08:03;101631.89;;;35.81;31.78
79273;BME280;68718;-19.302;146.788;2023-04-24T05:10:29;101625.36;;;35.73;31.98
79273;BME280;68718;-19.302;146.788;2023-04-24T05:12:54;101627.60;;;36.32;31.47
79273;BME280;68718;-19.302;146.788;2023-04-24T05:15:19;101640.66;;;34.72;32.77
79273;BME280;68718;-19.302;146.788;2023-04-24T05:17:44;101640.57;;;36.24;31.33
79273;BME280;68718;-19.302;146.788;2023-04-24T05:20:10;101635.91;;;37.34;30.03
79273;BME280;68718;-19.302;146.788;2023-04-24T05:22:35;101648.62;;;36.83;30.74
79273;BME280;68718;-19.302;146.788;2023-04-24T05:25:01;101643.22;;;35.48;32.18
79273;BME280;68718;-19.302;146.788;2023-04-24T05:27:26;101646.78;;;34.27;33.26
79273;BME280;68718;-19.302;146.788;2023-04-24T05:29:51;101650.42;;;35.07;33.14
79273;BME280;68718;-19.302;146.788;2023-04-24T05:32:17;101646.96;;;35.14;33.41
79273;BME280;68718;-19.302;146.788;2023-04-24T05:34:42;101644.52;;;35.61;32.52
79273;BME280;68718;-19.302;146.788;2023-04-24T05:37:08;101648.15;;;36.18;31.92
79273;BME280;68718;-19.302;146.788;2023-04-24T05:39:33;101647.57;;;36.25;31.56
79273;BME280;68718;-19.302;146.788;2023-04-24T05:41:59;101646.99;;;35.46;32.02
79273;BME280;68718;-19.302;146.788;2023-04-24T05:44:24;101639.66;;;36.07;30.97
79273;BME280;68718;-19.302;146.788;2023-04-24T05:46:49;101635.22;;;36.79;30.24
79273;BME280;68718;-19.302;146.788;2023-04-24T05:49:15;101639.72;;;35.61;31.41
79273;BME280;68718;-19.302;146.788;2023-04-24T05:51:40;101642.29;;;35.99;31.43
79273;BME280;68718;-19.302;146.788;2023-04-24T05:54:06;101637.85;;;35.76;31.79
79273;BME280;68718;-19.302;146.788;2023-04-24T05:56:31;101638.25;;;36.92;30.14
79273;BME280;68718;-19.302;146.788;2023-04-24T05:58:56;101638.71;;;37.30;29.75
79273;BME280;68718;-19.302;146.788;2023-04-24T06:01:22;101642.32;;;35.71;31.81
79273;BME280;68718;-19.302;146.788;2023-04-24T06:03:48;101640.16;;;37.00;29.69
79273;BME280;68718;-19.302;146.788;2023-04-24T06:06:13;101636.12;;;36.68;29.63
79273;BME280;68718;-19.302;146.788;2023-04-24T06:08:38;101629.03;;;36.40;30.22
79273;BME280;68718;-19.302;146.788;2023-04-24T06:11:04;101638.14;;;36.52;29.95
79273;BME280;68718;-19.302;146.788;2023-04-24T06:13:29;101644.03;;;36.07;30.40
79273;BME280;68718;-19.302;146.788;2023-04-24T06:15:54;101642.67;;;36.56;30.03
79273;BME280;68718;-19.302;146.788;2023-04-24T06:18:20;101636.58;;;36.82;29.60
79273;BME280;68718;-19.302;146.788;2023-04-24T06:20:46;101636.88;;;36.61;30.21
79273;BME280;68718;-19.302;146.788;2023-04-24T06:23:10;101640.34;;;36.99;29.18
79273;BME280;68718;-19.302;146.788;2023-04-24T06:25:36;101637.88;;;38.04;28.42
79273;BME280;68718;-19.302;146.788;2023-04-24T06:28:01;101633.65;;;37.89;28.11
79273;BME280;68718;-19.302;146.788;2023-04-24T06:30:27;101634.83;;;36.62;30.17
79273;BME280;68718;-19.302;146.788;2023-04-24T06:32:52;101635.77;;;37.04;29.65
79273;BME280;68718;-19.302;146.788;2023-04-24T06:35:18;101635.70;;;36.76;29.80
79273;BME280;68718;-19.302;146.788;2023-04-24T06:37:44;101643.57;;;36.77;29.59
79273;BME280;68718;-19.302;146.788;2023-04-24T06:40:09;101642.95;;;36.78;29.72
79273;BME280;68718;-19.302;146.788;2023-04-24T06:42:35;101643.62;;;36.86;29.27
79273;BME280;68718;-19.302;146.788;2023-04-24T06:44:59;101644.04;;;36.77;29.91
79273;BME280;68718;-19.302;146.788;2023-04-24T06:47:25;101648.69;;;35.89;30.81
79273;BME280;68718;-19.302;146.788;2023-04-24T06:49:50;101653.58;;;36.67;30.40
79273;BME280;68718;-19.302;146.788;2023-04-24T06:52:16;101656.22;;;37.37;29.69
79273;BME280;68718;-19.302;146.788;2023-04-24T06:54:42;101661.86;;;37.43;29.40
79273;BME280;68718;-19.302;146.788;2023-04-24T06:57:06;101658.48;;;36.47;30.37
79273;BME280;68718;-19.302;146.788;2023-04-24T06:59:32;101659.91;;;35.53;31.50
79273;BME280;68718;-19.302;146.788;2023-04-24T07:01:58;101658.83;;;35.86;31.18
79273;BME280;68718;-19.302;146.788;2023-04-24T07:04:23;101659.12;;;35.67;30.91
79273;BME280;68718;-19.302;146.788;2023-04-24T07:06:49;101654.25;;;36.04;31.28
79273;BME280;68718;-19.302;146.788;2023-04-24T07:09:14;101661.90;;;36.27;30.97
79273;BME280;68718;-19.302;146.788;2023-04-24T07:11:39;101665.08;;;35.05;31.75
79273;BME280;68718;-19.302;146.788;2023-04-24T07:14:05;101666.54;;;36.30;31.16
79273;BME280;68718;-19.302;146.788;2023-04-24T07:16:30;101664.10;;;36.18;30.78
79273;BME280;68718;-19.302;146.788;2023-04-24T07:18:57;101661.28;;;36.62;30.59
79273;BME280;68718;-19.302;146.788;2023-04-24T07:21:21;101664.54;;;37.29;29.75
79273;BME280;68718;-19.302;146.788;2023-04-24T07:23:47;101667.68;;;37.48;29.35
79273;BME280;68718;-19.302;146.788;2023-04-24T07:26:12;101670.47;;;38.08;28.92
79273;BME280;68718;-19.302;146.788;2023-04-24T07:28:37;101676.27;;;36.87;29.50
79273;BME280;68718;-19.302;146.788;2023-04-24T07:31:03;101682.87;;;35.60;31.58
79273;BME280;68718;-19.302;146.788;2023-04-24T07:33:28;101685.02;;;36.02;31.91
79273;BME280;68718;-19.302;146.788;2023-04-24T07:35:54;101683.54;;;35.37;32.17
79273;BME280;68718;-19.302;146.788;2023-04-24T07:38:20;101677.68;;;36.29;30.77
79273;BME280;68718;-19.302;146.788;2023-04-24T07:40:45;101681.39;;;36.83;30.51
79273;BME280;68718;-19.302;146.788;2023-04-24T07:43:10;101686.13;;;37.45;29.85
79273;BME280;68718;-19.302;146.788;2023-04-24T07:45:36;101693.06;;;37.52;29.12
79273;BME280;68718;-19.302;146.788;2023-04-24T07:48:02;101696.74;;;37.09;30.46
79273;BME280;68718;-19.302;146.788;2023-04-24T07:50:26;101700.56;;;36.25;31.06
79273;BME280;68718;-19.302;146.788;2023-04-24T07:52:52;101706.49;;;36.23;31.52
79273;BME280;68718;-19.302;146.788;2023-04-24T07:55:17;101709.27;;;38.01;29.96
79273;BME280;68718;-19.302;146.788;2023-04-24T07:57:43;101712.67;;;37.78;29.56
79273;BME280;68718;-19.302;146.788;2023-04-24T08:00:09;101717.51;;;37.83;29.78
79273;BME280;68718;-19.302;146.788;2023-04-24T08:02:34;101719.45;;;37.76;30.09
79273;BME280;68718;-19.302;146.788;2023-04-24T08:04:59;101723.91;;;38.28;29.26
79273;BME280;68718;-19.302;146.788;2023-04-24T08:07:25;101726.20;;;37.96;29.28
79273;BME280;68718;-19.302;146.788;2023-04-24T08:09:50;101729.41;;;38.36;29.11
79273;BME280;68718;-19.302;146.788;2023-04-24T08:12:15;101732.10;;;38.19;29.06
79273;BME280;68718;-19.302;146.788;2023-04-24T08:14:41;101738.55;;;38.52;29.00
79273;BME280;68718;-19.302;146.788;2023-04-24T08:17:06;101739.65;;;38.12;29.19
79273;BME280;68718;-19.302;146.788;2023-04-24T08:19:31;101743.51;;;37.65;29.80
79273;BME280;68718;-19.302;146.788;2023-04-24T08:21:57;101742.89;;;36.92;30.79
79273;BME280;68718;-19.302;146.788;2023-04-24T08:24:22;101741.98;;;37.14;30.63
79273;BME280;68718;-19.302;146.788;2023-04-24T08:26:48;101740.59;;;36.96;31.03
79273;BME280;68718;-19.302;146.788;2023-04-24T08:29:13;101739.41;;;37.02;30.80
79273;BME280;68718;-19.302;146.788;2023-04-24T08:31:39;101740.27;;;37.40;30.64
79273;BME280;68718;-19.302;146.788;2023-04-24T08:34:04;101742.46;;;35.89;32.34
79273;BME280;68718;-19.302;146.788;2023-04-24T08:36:29;101741.25;;;36.70;30.95
79273;BME280;68718;-19.302;146.788;2023-04-24T08:38:54;101741.25;;;36.97;30.95
79273;BME280;68718;-19.302;146.788;2023-04-24T08:41:20;101743.36;;;37.58;30.08
79273;BME280;68718;-19.302;146.788;2023-04-24T08:43:47;101743.95;;;37.14;30.40
79273;BME280;68718;-19.302;146.788;2023-04-24T08:46:12;101744.46;;;36.55;31.18
79273;BME280;68718;-19.302;146.788;2023-04-24T08:48:36;101749.42;;;37.78;29.84
79273;BME280;68718;-19.302;146.788;2023-04-24T08:51:04;101752.95;;;37.90;29.57
79273;BME280;68718;-19.302;146.788;2023-04-24T08:53:28;101759.54;;;37.26;30.40
79273;BME280;68718;-19.302;146.788;2023-04-24T08:55:55;101761.96;;;37.59;29.81
79273;BME280;68718;-19.302;146.788;2023-04-24T08:58:19;101761.84;;;37.69;29.71
79273;BME280;68718;-19.302;146.788;2023-04-24T09:00:44;101760.47;;;37.22;30.31
79273;BME280;68718;-19.302;146.788;2023-04-24T09:03:11;101763.17;;;37.92;30.15
79273;BME280;68718;-19.302;146.788;2023-04-24T09:05:36;101764.86;;;36.80;31.35
79273;BME280;68718;-19.302;146.788;2023-04-24T09:08:03;101760.65;;;36.96;30.72
79273;BME280;68718;-19.302;146.788;2023-04-24T09:10:27;101756.58;;;36.91;30.64
79273;BME280;68718;-19.302;146.788;2023-04-24T09:12:53;101763.23;;;36.94;31.25
79273;BME280;68718;-19.302;146.788;2023-04-24T09:15:18;101770.12;;;35.90;32.45
79273;BME280;68718;-19.302;146.788;2023-04-24T09:17:44;101769.05;;;37.30;31.03
79273;BME280;68718;-19.302;146.788;2023-04-24T09:20:09;101772.81;;;37.42;30.79
79273;BME280;68718;-19.302;146.788;2023-04-24T09:22:34;101776.25;;;36.77;31.96
79273;BME280;68718;-19.302;146.788;2023-04-24T09:25:05;101781.07;;;36.80;32.24
79273;BME280;68718;-19.302;146.788;2023-04-24T09:27:25;101784.67;;;36.52;32.59
79273;BME280;68718;-19.302;146.788;2023-04-24T09:29:55;101784.03;;;36.47;32.33
79273;BME280;68718;-19.302;146.788;2023-04-24T09:32:22;101787.10;;;37.45;31.20
79273;BME280;68718;-19.302;146.788;2023-04-24T09:34:41;101792.27;;;37.49;30.79
79273;BME280;68718;-19.302;146.788;2023-04-24T09:37:07;101796.05;;;37.06;31.62
79273;BME280;68718;-19.302;146.788;2023-04-24T09:39:32;101797.81;;;36.67;31.89
79273;BME280;68718;-19.302;146.788;2023-04-24T09:41:57;101804.33;;;36.58;32.70
79273;BME280;68718;-19.302;146.788;2023-04-24T09:44:24;101805.84;;;37.03;31.85
79273;BME280;68718;-19.302;146.788;2023-04-24T09:46:51;101809.86;;;35.67;33.29
79273;BME280;68718;-19.302;146.788;2023-04-24T09:49:16;101814.82;;;36.41;32.86
79273;BME280;68718;-19.302;146.788;2023-04-24T09:51:40;101817.16;;;36.62;32.13
79273;BME280;68718;-19.302;146.788;2023-04-24T09:54:11;101822.68;;;35.36;33.28
79273;BME280;68718;-19.302;146.788;2023-04-24T09:56:33;101823.46;;;36.23;32.60
79273;BME280;68718;-19.302;146.788;2023-04-24T09:58:56;101825.10;;;36.25;32.44
79273;BME280;68718;-19.302;146.788;2023-04-24T10:03:47;101837.68;;;35.66;32.89
79273;BME280;68718;-19.302;146.788;2023-04-24T10:06:12;101836.43;;;36.79;32.12
79273;BME280;68718;-19.302;146.788;2023-04-24T10:08:38;101845.13;;;34.39;35.19
79273;BME280;68718;-19.302;146.788;2023-04-24T10:11:03;101844.22;;;34.98;35.16
79273;BME280;68718;-19.302;146.788;2023-04-24T10:13:29;101847.39;;;35.39;34.09
79273;BME280;68718;-19.302;146.788;2023-04-24T10:15:54;101845.38;;;35.70;33.56
79273;BME280;68718;-19.302;146.788;2023-04-24T10:18:19;101849.79;;;36.55;32.79
79273;BME280;68718;-19.302;146.788;2023-04-24T10:20:44;101845.99;;;37.07;32.23
79273;BME280;68718;-19.302;146.788;2023-04-24T10:23:11;101843.77;;;36.77;32.39
79273;BME280;68718;-19.302;146.788;2023-04-24T10:25:36;101847.14;;;36.42;32.43
79273;BME280;68718;-19.302;146.788;2023-04-24T10:28:02;101844.87;;;36.67;31.83
79273;BME280;68718;-19.302;146.788;2023-04-24T10:30:28;101844.15;;;36.62;32.01
79273;BME280;68718;-19.302;146.788;2023-04-24T10:32:51;101846.15;;;35.78;32.86
79273;BME280;68718;-19.302;146.788;2023-04-24T10:35:19;101854.79;;;34.80;34.34
79273;BME280;68718;-19.302;146.788;2023-04-24T10:37:45;101858.58;;;35.69;33.73
79273;BME280;68718;-19.302;146.788;2023-04-24T10:40:10;101867.26;;;35.67;33.86
79273;BME280;68718;-19.302;146.788;2023-04-24T10:42:34;101875.84;;;34.60;34.73
79273;BME280;68718;-19.302;146.788;2023-04-24T10:44:59;101873.78;;;35.16;34.08
79273;BME280;68718;-19.302;146.788;2023-04-24T10:47:25;101880.18;;;35.20;33.94
79273;BME280;68718;-19.302;146.788;2023-04-24T10:49:52;101883.77;;;35.40;33.67
79273;BME280;68718;-19.302;146.788;2023-04-24T10:52:16;101887.28;;;34.54;34.98
79273;BME280;68718;-19.302;146.788;2023-04-24T10:54:45;101892.44;;;33.42;37.27
79273;BME280;68718;-19.302;146.788;2023-04-24T10:57:26;101897.46;;;33.32;37.59
79273;BME280;68718;-19.302;146.788;2023-04-24T10:59:36;101897.69;;;32.00;39.81
79273;BME280;68718;-19.302;146.788;2023-04-24T11:01:58;101898.18;;;32.62;38.16
79273;BME280;68718;-19.302;146.788;2023-04-24T11:04:29;101897.25;;;32.09;38.95
79273;BME280;68718;-19.302;146.788;2023-04-24T11:06:48;101891.66;;;33.03;37.68
79273;BME280;68718;-19.302;146.788;2023-04-24T11:09:16;101895.28;;;32.69;38.13
79273;BME280;68718;-19.302;146.788;2023-04-24T11:11:44;101893.16;;;34.02;36.03
79273;BME280;68718;-19.302;146.788;2023-04-24T11:14:08;101890.87;;;33.77;36.20
79273;BME280;68718;-19.302;146.788;2023-04-24T11:16:31;101887.29;;;33.59;36.77
79273;BME280;68718;-19.302;146.788;2023-04-24T11:19:02;101889.63;;;31.73;39.99
79273;BME280;68718;-19.302;146.788;2023-04-24T11:21:22;101886.25;;;31.97;39.54
79273;BME280;68718;-19.302;146.788;2023-04-24T11:23:47;101886.08;;;32.12;39.98
79273;BME280;68718;-19.302;146.788;2023-04-24T11:26:16;101881.08;;;32.28;39.95
79273;BME280;68718;-19.302;146.788;2023-04-24T11:28:38;101887.08;;;32.15;40.87
79273;BME280;68718;-19.302;146.788;2023-04-24T11:33:29;101897.37;;;31.76;41.12
79273;BME280;68718;-19.302;146.788;2023-04-24T11:35:54;101894.37;;;32.87;38.99
79273;BME280;68718;-19.302;146.788;2023-04-24T11:38:20;101893.81;;;32.05;41.13
79273;BME280;68718;-19.302;146.788;2023-04-24T11:40:45;101899.36;;;31.48;42.09
79273;BME280;68718;-19.302;146.788;2023-04-24T11:43:11;101898.09;;;30.70;43.56
79273;BME280;68718;-19.302;146.788;2023-04-24T11:45:36;101898.80;;;31.29;43.23
79273;BME280;68718;-19.302;146.788;2023-04-24T11:48:01;101894.61;;;31.72;41.15
79273;BME280;68718;-19.302;146.788;2023-04-24T11:50:28;101901.83;;;30.74;43.92
79273;BME280;68718;-19.302;146.788;2023-04-24T11:52:53;101894.66;;;32.00;41.60
79273;BME280;68718;-19.302;146.788;2023-04-24T11:55:27;101894.39;;;31.15;43.05
79273;BME280;68718;-19.302;146.788;2023-04-24T11:57:44;101885.19;;;32.42;40.17
79273;BME280;68718;-19.302;146.788;2023-04-24T12:00:14;101878.76;;;32.48;40.18
79273;BME280;68718;-19.302;146.788;2023-04-24T12:02:34;101879.59;;;32.58;39.52
79273;BME280;68718;-19.302;146.788;2023-04-24T12:04:59;101878.82;;;30.83;43.62
79273;BME280;68718;-19.302;146.788;2023-04-24T12:07:25;101875.80;;;31.10;42.85
79273;BME280;68718;-19.302;146.788;2023-04-24T12:09:57;101875.62;;;31.31;42.39
79273;BME280;68718;-19.302;146.788;2023-04-24T12:12:18;101870.59;;;31.02;42.99
79273;BME280;68718;-19.302;146.788;2023-04-24T12:14:49;101868.00;;;31.98;41.77
79273;BME280;68718;-19.302;146.788;2023-04-24T12:17:07;101860.17;;;30.72;43.89
79273;BME280;68718;-19.302;146.788;2023-04-24T12:19:32;101857.37;;;30.81;43.71